createdAt,value
2023-03-31T00:01:01.158Z,100128.28
2023-03-31T00:03:28.479Z,100125.22
2023-03-31T00:06:01.174Z,100116.59
2023-03-31T00:08:35.350Z,100110.28
2023-03-31T00:11:07.999Z,100117.88
2023-03-31T00:13:36.973Z,100112.25
2023-03-31T00:16:09.367Z,100111.25
2023-03-31T00:18:37.729Z,100103.03
2023-03-31T00:21:24.513Z,100098.50
2023-03-31T00:24:07.830Z,100098.66
2023-03-31T00:26:36.425Z,100095.22
2023-03-31T00:29:07.092Z,100082.78
2023-03-31T00:31:36.044Z,100083.91
2023-03-31T00:34:03.410Z,100073.56
2023-03-31T00:36:31.097Z,100078.75
2023-03-31T00:39:02.584Z,100081.28
2023-03-31T00:41:30.760Z,100070.59
2023-03-31T00:44:29.357Z,100075.22
2023-03-31T00:47:16.558Z,100067.50
2023-03-31T00:49:56.947Z,100060.81
2023-03-31T00:52:32.122Z,100062.66
2023-03-31T00:55:17.395Z,100055.09
2023-03-31T00:57:48.112Z,100058.13
2023-03-31T01:00:16.463Z,100045.75
2023-03-31T01:02:55.793Z,100040.28
2023-03-31T01:05:43.642Z,100042.84
2023-03-31T01:08:12.199Z,100041.97
2023-03-31T01:10:50.490Z,100047.06
2023-03-31T01:13:18.964Z,100045.09
2023-03-31T01:15:46.294Z,100044.94
2023-03-31T01:18:16.548Z,100037.78
2023-03-31T01:21:37.521Z,100038.91
2023-03-31T01:25:01.440Z,100025.03
2023-03-31T01:28:33.163Z,100020.72
2023-03-31T01:31:21.482Z,100010.09
2023-03-31T01:34:15.596Z,100007.41
2023-03-31T01:37:42.755Z,100001.25
2023-03-31T01:40:49.342Z,100002.09
2023-03-31T01:44:07.703Z,100006.50
2023-03-31T01:46:58.621Z,100000.28
2023-03-31T01:49:51.394Z,99996.16
2023-03-31T01:52:48.708Z,99995.88
2023-03-31T01:55:30.956Z,99995.03
2023-03-31T01:58:09.561Z,99995.88
2023-03-31T02:00:51.839Z,99996.84
2023-03-31T02:03:33.016Z,100001.09
2023-03-31T02:06:19.992Z,100000.34
2023-03-31T02:08:53.743Z,99983.75
2023-03-31T02:11:22.283Z,99999.47
2023-03-31T02:13:53.829Z,99999.47
2023-03-31T02:16:26.736Z,99993.47
2023-03-31T02:19:02.253Z,99984.56
2023-03-31T02:21:34.784Z,99975.75
2023-03-31T02:24:12.756Z,99964.50
2023-03-31T02:26:53.670Z,99963.53
2023-03-31T02:29:21.875Z,99956.66
2023-03-31T02:32:13.528Z,99951.34
2023-03-31T02:34:41.379Z,99939.91
2023-03-31T02:37:08.638Z,99939.03
2023-03-31T02:39:39.669Z,99950.50
2023-03-31T02:42:07.600Z,99956.03
2023-03-31T02:44:39.944Z,99946.25
2023-03-31T02:47:13.491Z,99954.09
2023-03-31T02:49:50.448Z,99958.44
2023-03-31T02:53:06.489Z,99957.50
2023-03-31T02:56:17.022Z,99961.28
2023-03-31T02:59:35.346Z,99955.75
2023-03-31T03:02:34.222Z,99935.63
2023-03-31T03:05:26.033Z,99947.09
2023-03-31T03:08:38.223Z,99950.38
2023-03-31T03:11:26.002Z,99941.72
2023-03-31T03:14:13.091Z,99940.66
2023-03-31T03:16:51.608Z,99959.19
2023-03-31T03:19:23.741Z,99948.66
2023-03-31T03:21:51.221Z,99943.50
2023-03-31T03:24:18.885Z,99934.72
2023-03-31T03:26:46.559Z,99926.13
2023-03-31T03:29:14.630Z,99930.47
2023-03-31T03:31:42.982Z,99927.78
2023-03-31T03:34:10.269Z,99927.84
2023-03-31T03:36:39.018Z,99922.69
2023-03-31T03:39:08.119Z,99924.31
2023-03-31T03:41:36.279Z,99922.69
2023-03-31T03:44:03.627Z,99924.47
2023-03-31T03:46:30.869Z,99928.00
2023-03-31T03:48:58.034Z,99930.47
2023-03-31T03:51:25.604Z,99924.38
2023-03-31T03:53:52.805Z,99931.38
2023-03-31T03:56:19.912Z,99948.78
2023-03-31T03:58:47.071Z,99948.72
2023-03-31T04:01:16.243Z,99941.56
2023-03-31T04:03:43.861Z,99942.38
2023-03-31T04:06:11.471Z,99940.50
2023-03-31T04:08:38.663Z,99934.50
2023-03-31T04:11:19.176Z,99932.81
2023-03-31T04:13:47.491Z,99931.09
2023-03-31T04:16:15.096Z,99921.50
2023-03-31T04:18:45.362Z,99906.53
2023-03-31T04:21:22.949Z,99902.94
2023-03-31T04:24:01.791Z,99905.50
2023-03-31T04:26:43.666Z,99909.03
2023-03-31T04:29:20.528Z,99908.19
2023-03-31T04:31:47.794Z,99905.63
2023-03-31T04:34:15.910Z,99901.22
2023-03-31T04:36:47.919Z,99889.06
2023-03-31T04:39:26.997Z,99884.81
2023-03-31T04:41:54.770Z,99875.19
2023-03-31T04:44:22.036Z,99883.53
2023-03-31T04:46:50.315Z,99895.72
2023-03-31T04:49:18.019Z,99889.50
2023-03-31T04:51:45.175Z,99897.72
2023-03-31T04:54:12.796Z,99894.16
2023-03-31T04:56:40.047Z,99888.91
2023-03-31T04:59:08.444Z,99888.00
2023-03-31T05:01:36.608Z,99894.28
2023-03-31T05:04:05.605Z,99890.06
2023-03-31T05:06:33.468Z,99883.97
2023-03-31T05:09:00.794Z,99879.59
2023-03-31T05:11:28.937Z,99877.88
2023-03-31T05:13:57.309Z,99871.88
2023-03-31T05:16:24.629Z,99852.66
2023-03-31T05:18:52.179Z,99840.94
2023-03-31T05:21:21.466Z,99841.41
2023-03-31T05:23:49.505Z,99834.72
2023-03-31T05:26:16.997Z,99829.97
2023-03-31T05:28:44.467Z,99828.81
2023-03-31T05:31:13.145Z,99831.56
2023-03-31T05:33:41.828Z,99842.56
2023-03-31T05:36:16.502Z,99837.13
2023-03-31T05:38:44.350Z,99837.63
2023-03-31T05:41:11.938Z,99828.88
2023-03-31T05:43:39.729Z,99820.25
2023-03-31T05:46:07.822Z,99820.25
2023-03-31T05:48:37.843Z,99819.44
2023-03-31T05:51:06.022Z,99818.81
2023-03-31T05:53:34.102Z,99826.41
2023-03-31T05:56:06.864Z,99831.84
2023-03-31T05:58:36.726Z,99821.78
2023-03-31T06:01:11.731Z,99822.88
2023-03-31T06:03:41.863Z,99813.38
2023-03-31T06:06:10.479Z,99808.97
2023-03-31T06:08:37.865Z,99809.66
2023-03-31T06:11:12.058Z,99794.91
2023-03-31T06:13:41.399Z,99803.72
2023-03-31T06:16:11.349Z,99800.47
2023-03-31T06:18:39.627Z,99812.22
2023-03-31T06:21:08.237Z,99803.16
2023-03-31T06:23:35.606Z,99807.59
2023-03-31T06:26:08.128Z,99814.00
2023-03-31T06:28:36.654Z,99805.41
2023-03-31T06:31:25.056Z,99807.19
2023-03-31T06:33:53.554Z,99820.34
2023-03-31T06:36:22.567Z,99816.28
2023-03-31T06:38:51.302Z,99797.25
2023-03-31T06:41:21.099Z,99802.47
2023-03-31T06:43:48.653Z,99793.66
2023-03-31T06:46:16.529Z,99793.66
2023-03-31T06:48:44.029Z,99791.88
2023-03-31T06:51:11.877Z,99786.63
2023-03-31T06:53:39.210Z,99786.75
2023-03-31T06:56:07.557Z,99790.44
2023-03-31T06:58:35.477Z,99790.63
2023-03-31T07:01:05.943Z,99782.75
2023-03-31T07:03:34.266Z,99796.94
2023-03-31T07:06:01.533Z,99792.66
2023-03-31T07:08:29.097Z,99788.94
2023-03-31T07:11:00.689Z,99783.56
2023-03-31T07:13:28.902Z,99781.84
2023-03-31T07:15:57.003Z,99789.00
2023-03-31T07:18:34.239Z,99785.78
2023-03-31T07:21:05.097Z,99770.78
2023-03-31T07:23:35.642Z,99770.13
2023-03-31T07:26:02.913Z,99766.03
2023-03-31T07:28:31.107Z,99748.06
2023-03-31T07:30:58.578Z,99740.53
2023-03-31T07:33:25.832Z,99746.41
2023-03-31T07:36:07.811Z,99737.59
2023-03-31T07:38:37.640Z,99741.91
2023-03-31T07:41:08.879Z,99746.16
2023-03-31T07:43:37.696Z,99753.94
2023-03-31T07:46:05.966Z,99747.56
2023-03-31T07:48:34.420Z,99746.19
2023-03-31T07:51:01.769Z,99735.19
2023-03-31T07:53:33.986Z,99730.84
2023-03-31T07:56:01.425Z,99743.22
2023-03-31T07:58:29.143Z,99726.44
2023-03-31T08:00:56.580Z,99716.19
2023-03-31T08:03:23.724Z,99723.50
2023-03-31T08:05:54.906Z,99734.41
2023-03-31T08:08:22.268Z,99744.03
2023-03-31T08:10:49.925Z,99733.13
2023-03-31T08:13:17.311Z,99732.09
2023-03-31T08:15:44.501Z,99741.19
2023-03-31T08:18:11.718Z,99744.78
2023-03-31T08:20:39.335Z,99748.31
2023-03-31T08:23:09.175Z,99751.69
2023-03-31T08:25:36.554Z,99752.84
2023-03-31T08:28:03.866Z,99737.09
2023-03-31T08:30:31.385Z,99725.28
2023-03-31T08:32:58.584Z,99714.72
2023-03-31T08:35:25.758Z,99706.03
2023-03-31T08:37:52.969Z,99704.59
2023-03-31T08:40:26.044Z,99722.16
2023-03-31T08:43:13.544Z,99744.50
2023-03-31T08:45:46.942Z,99742.34
2023-03-31T08:48:45.028Z,99735.38
2023-03-31T08:51:22.770Z,99729.09
2023-03-31T08:54:13.083Z,99733.13
2023-03-31T08:56:48.107Z,99716.78
2023-03-31T08:59:32.152Z,99719.41
2023-03-31T09:02:30.566Z,99711.03
2023-03-31T09:05:43.403Z,99692.25
2023-03-31T09:08:36.511Z,99697.25
2023-03-31T09:11:51.119Z,99693.38
2023-03-31T09:14:51.672Z,99670.59
2023-03-31T09:17:48.128Z,99651.94
2023-03-31T09:20:41.120Z,99639.56
2023-03-31T09:23:36.400Z,99644.66
2023-03-31T09:26:05.249Z,99645.34
2023-03-31T09:28:39.533Z,99642.44
2023-03-31T09:31:20.880Z,99649.53
2023-03-31T09:33:51.639Z,99646.69
2023-03-31T09:36:24.426Z,99641.25
2023-03-31T09:38:52.260Z,99652.41
2023-03-31T09:41:20.568Z,99658.22
2023-03-31T09:43:49.429Z,99662.22
2023-03-31T09:46:22.984Z,99664.88
2023-03-31T09:49:30.959Z,99661.22
2023-03-31T09:52:32.176Z,99661.78
2023-03-31T09:55:40.205Z,99656.81
2023-03-31T09:58:14.596Z,99633.91
2023-03-31T10:01:06.402Z,99616.34
2023-03-31T10:03:37.302Z,99618.25
2023-03-31T10:06:14.871Z,99610.50
2023-03-31T10:09:01.809Z,99624.06
2023-03-31T10:11:29.628Z,99627.81
2023-03-31T10:14:14.460Z,99632.63
2023-03-31T10:16:55.687Z,99628.13
2023-03-31T10:19:30.327Z,99614.91
2023-03-31T10:22:28.383Z,99595.34
2023-03-31T10:25:22.239Z,99586.19
2023-03-31T10:27:55.405Z,99574.53
2023-03-31T10:30:26.559Z,99568.25
2023-03-31T10:32:54.900Z,99556.97
2023-03-31T10:35:30.666Z,99547.81
2023-03-31T10:38:06.172Z,99529.25
2023-03-31T10:40:35.654Z,99515.34
2023-03-31T10:43:24.699Z,99516.72
2023-03-31T10:46:00.501Z,99518.16
2023-03-31T10:48:41.008Z,99521.16
2023-03-31T10:51:22.249Z,99505.72
2023-03-31T10:53:53.697Z,99500.19
2023-03-31T10:56:48.648Z,99499.56
2023-03-31T11:00:05.607Z,99487.09
2023-03-31T11:03:36.887Z,99479.38
2023-03-31T11:06:43.914Z,99490.28
2023-03-31T11:09:52.186Z,99478.19
2023-03-31T11:12:44.605Z,99479.25
2023-03-31T11:16:07.681Z,99469.66
2023-03-31T11:19:20.768Z,99467.28
2023-03-31T11:22:38.215Z,99448.69
2023-03-31T11:26:06.513Z,99450.34
2023-03-31T11:28:46.434Z,99454.28
2023-03-31T11:31:49.993Z,99445.09
2023-03-31T11:34:50.245Z,99438.19
2023-03-31T11:38:18.430Z,99424.84
2023-03-31T11:41:21.656Z,99422.56
2023-03-31T11:44:03.804Z,99426.75
2023-03-31T11:46:50.920Z,99417.03
2023-03-31T11:49:28.313Z,99403.59
2023-03-31T11:52:18.229Z,99409.94
2023-03-31T11:55:27.431Z,99400.22
2023-03-31T11:57:57.258Z,99382.22
2023-03-31T12:00:56.594Z,99376.06
2023-03-31T12:03:45.141Z,99382.66
2023-03-31T12:06:36.682Z,99385.59
2023-03-31T12:10:07.751Z,99382.34
2023-03-31T12:12:51.730Z,99367.28
2023-03-31T12:15:38.382Z,99353.16
2023-03-31T12:18:25.021Z,99340.13
2023-03-31T12:20:57.677Z,99329.47
2023-03-31T12:23:35.993Z,99316.44
2023-03-31T12:26:33.310Z,99317.28
2023-03-31T12:29:16.390Z,99311.00
2023-03-31T12:31:46.250Z,99313.81
2023-03-31T12:34:19.416Z,99305.00
2023-03-31T12:37:17.544Z,99294.53
2023-03-31T12:40:41.084Z,99292.34
2023-03-31T12:43:54.639Z,99288.47
2023-03-31T12:46:43.559Z,99282.22
2023-03-31T12:49:51.519Z,99278.16
2023-03-31T12:52:51.341Z,99275.00
2023-03-31T12:55:37.791Z,99265.78
2023-03-31T12:58:26.715Z,99259.03
2023-03-31T13:01:16.046Z,99245.31
2023-03-31T13:04:06.394Z,99244.59
2023-03-31T13:06:33.607Z,99235.47
2023-03-31T13:09:08.528Z,99239.41
2023-03-31T13:11:36.083Z,99232.41
2023-03-31T13:14:37.391Z,99224.19
2023-03-31T13:17:33.500Z,99225.97
2023-03-31T13:20:38.639Z,99216.91
2023-03-31T13:23:28.692Z,99216.03
2023-03-31T13:25:58.327Z,99218.53
2023-03-31T13:28:43.060Z,99202.75
2023-03-31T13:31:14.497Z,99198.75
2023-03-31T13:33:58.132Z,99194.38
2023-03-31T13:36:34.344Z,99174.72
2023-03-31T13:39:45.225Z,99176.06
2023-03-31T13:43:02.959Z,99173.72
2023-03-31T13:45:54.114Z,99161.69
2023-03-31T13:48:48.422Z,99159.22
2023-03-31T13:51:59.667Z,99158.31
2023-03-31T13:55:19.296Z,99158.81
2023-03-31T13:58:37.660Z,99147.53
2023-03-31T14:02:12.436Z,99128.59
2023-03-31T14:05:35.765Z,99130.75
2023-03-31T14:08:31.692Z,99113.72
2023-03-31T14:11:28.408Z,99105.56
2023-03-31T14:14:15.538Z,99101.91
2023-03-31T14:16:59.610Z,99110.47
2023-03-31T14:19:44.846Z,99113.66
2023-03-31T14:23:06.432Z,99120.25
2023-03-31T14:25:59.725Z,99121.69
2023-03-31T14:29:14.040Z,99120.66
2023-03-31T14:32:24.071Z,99106.63
2023-03-31T14:35:26.583Z,99094.72
2023-03-31T14:37:56.291Z,99094.16
2023-03-31T14:40:24.671Z,99076.28
2023-03-31T14:42:52.473Z,99073.25
2023-03-31T14:45:31.376Z,99065.97
2023-03-31T14:48:14.808Z,99064.97
2023-03-31T14:50:47.052Z,99064.81
2023-03-31T14:53:23.969Z,99082.25
2023-03-31T14:55:59.968Z,99084.50
2023-03-31T14:58:37.229Z,99076.72
2023-03-31T15:01:07.947Z,99080.03
2023-03-31T15:03:41.662Z,99087.69
2023-03-31T15:06:11.324Z,99086.66
2023-03-31T15:08:38.737Z,99077.63
2023-03-31T15:11:19.552Z,99073.19
2023-03-31T15:14:04.453Z,99072.41
2023-03-31T15:16:45.533Z,99074.69
2023-03-31T15:19:33.243Z,99062.31
2023-03-31T15:22:16.358Z,99062.88
2023-03-31T15:24:43.624Z,99051.84
2023-03-31T15:27:36.901Z,99050.91
2023-03-31T15:30:15.432Z,99047.56
2023-03-31T15:32:42.929Z,99046.06
2023-03-31T15:35:35.660Z,99059.13
2023-03-31T15:38:06.392Z,99064.09
2023-03-31T15:40:43.814Z,99056.81
2023-03-31T15:43:50.841Z,99062.25
2023-03-31T15:46:51.268Z,99060.22
2023-03-31T15:49:26.300Z,99047.47
2023-03-31T15:51:57.173Z,99042.47
2023-03-31T15:54:40.873Z,99038.28
2023-03-31T15:57:16.117Z,99044.34
2023-03-31T15:59:56.436Z,99038.88
2023-03-31T16:02:47.161Z,99040.50
2023-03-31T16:08:45.873Z,99047.66
2023-03-31T16:11:26.710Z,99040.69
2023-03-31T16:13:59.937Z,99016.38
2023-03-31T16:16:28.646Z,99016.09
2023-03-31T16:19:10.355Z,99015.22
2023-03-31T16:21:47.482Z,99009.22
2023-03-31T16:24:15.746Z,99007.25
2023-03-31T16:26:43.314Z,98989.44
2023-03-31T16:29:19.790Z,98995.94
2023-03-31T16:31:46.997Z,98984.84
2023-03-31T16:34:14.522Z,98980.88
2023-03-31T16:36:42.794Z,98978.34
2023-03-31T16:39:10.013Z,98984.56
2023-03-31T16:41:38.257Z,98977.50
2023-03-31T16:44:06.325Z,98972.00
2023-03-31T16:46:33.867Z,98972.66
2023-03-31T16:49:01.375Z,98970.59
2023-03-31T16:51:28.627Z,98968.44
2023-03-31T16:53:58.453Z,98965.88
2023-03-31T16:56:27.129Z,98967.66
2023-03-31T16:58:55.012Z,98971.16
2023-03-31T17:01:22.258Z,98969.72
2023-03-31T17:03:49.596Z,98981.03
2023-03-31T17:06:16.823Z,98981.06
2023-03-31T17:08:44.034Z,98998.59
2023-03-31T17:11:14.480Z,98989.16
2023-03-31T17:13:44.592Z,98976.50
2023-03-31T17:16:21.944Z,98969.94
2023-03-31T17:18:54.463Z,98973.00
2023-03-31T17:21:21.936Z,98976.47
2023-03-31T17:23:49.707Z,98966.47
2023-03-31T17:26:17.949Z,98956.78
2023-03-31T17:28:45.399Z,98959.19
2023-03-31T17:31:20.523Z,98984.47
2023-03-31T17:33:48.578Z,98987.78
2023-03-31T17:36:16.810Z,98993.16
2023-03-31T17:38:44.831Z,98991.34
2023-03-31T17:41:13.801Z,98991.94
2023-03-31T17:43:46.174Z,98997.94
2023-03-31T17:46:14.053Z,98995.41
2023-03-31T17:48:43.031Z,98988.19
2023-03-31T17:51:17.879Z,98986.91
2023-03-31T17:53:47.027Z,98983.22
2023-03-31T17:56:16.336Z,98983.47
2023-03-31T17:58:43.944Z,98981.56
2023-03-31T18:01:13.352Z,98979.69
2023-03-31T18:03:41.178Z,98979.63
2023-03-31T18:06:12.861Z,98984.03
2023-03-31T18:08:42.036Z,98985.72
2023-03-31T18:11:10.133Z,98984.09
2023-03-31T18:13:37.736Z,98987.66
2023-03-31T18:16:09.486Z,98987.59
2023-03-31T18:18:39.294Z,98978.53
2023-03-31T18:21:10.656Z,98981.72
2023-03-31T18:23:38.733Z,98982.63
2023-03-31T18:26:12.229Z,98981.00
2023-03-31T18:28:42.988Z,98979.22
2023-03-31T18:31:12.329Z,98977.59
2023-03-31T18:33:41.525Z,98976.84
2023-03-31T18:36:18.692Z,98972.28
2023-03-31T18:38:49.129Z,98976.84
2023-03-31T18:41:20.299Z,98978.44
2023-03-31T18:43:47.791Z,98976.38
2023-03-31T18:46:15.088Z,98973.28
2023-03-31T18:48:44.995Z,98975.94
2023-03-31T18:51:13.610Z,98978.22
2023-03-31T18:53:40.804Z,98969.34
2023-03-31T18:56:07.999Z,98972.44
2023-03-31T18:58:35.532Z,98977.41
2023-03-31T19:01:02.821Z,98982.38
2023-03-31T19:03:30.100Z,98983.28
2023-03-31T19:06:11.827Z,98978.13
2023-03-31T19:08:40.508Z,98978.84
2023-03-31T19:11:17.676Z,98979.41
2023-03-31T19:13:45.034Z,98981.81
2023-03-31T19:16:13.584Z,98987.13
2023-03-31T19:18:41.102Z,98983.53
2023-03-31T19:21:08.274Z,98992.31
2023-03-31T19:23:35.559Z,98990.59
2023-03-31T19:26:03.101Z,98982.00
2023-03-31T19:28:31.445Z,98979.31
2023-03-31T19:30:59.556Z,98981.69
2023-03-31T19:33:27.578Z,98977.06
2023-03-31T19:35:55.004Z,98982.28
2023-03-31T19:38:22.426Z,98979.69
2023-03-31T19:40:49.973Z,98982.97
2023-03-31T19:43:24.583Z,98979.28
2023-03-31T19:45:54.043Z,98984.34
2023-03-31T19:48:21.374Z,98989.56
2023-03-31T19:50:59.612Z,98987.66
2023-03-31T19:53:27.390Z,98981.41
2023-03-31T19:56:01.518Z,98988.31
2023-03-31T19:58:30.714Z,98996.59
2023-03-31T20:00:58.344Z,98990.13
2023-03-31T20:03:28.027Z,98983.00
2023-03-31T20:06:09.434Z,98997.75
2023-03-31T20:08:38.065Z,99000.38
2023-03-31T20:11:12.093Z,99000.78
2023-03-31T20:13:42.122Z,98995.59
2023-03-31T20:16:15.374Z,99000.59
2023-03-31T20:18:47.827Z,98997.66
2023-03-31T20:21:19.425Z,98999.78
2023-03-31T20:23:47.887Z,99008.69
2023-03-31T20:26:18.623Z,99003.03
2023-03-31T20:28:46.732Z,99005.44
2023-03-31T20:31:25.370Z,98995.91
2023-03-31T20:33:54.454Z,98996.16
2023-03-31T20:36:31.967Z,98979.91
2023-03-31T20:39:03.392Z,98982.72
2023-03-31T20:41:31.842Z,98977.34
2023-03-31T20:44:00.657Z,98958.88
2023-03-31T20:46:28.440Z,98963.19
2023-03-31T20:48:58.055Z,98954.13
2023-03-31T20:51:32.310Z,98951.34
2023-03-31T20:54:01.738Z,98948.38
2023-03-31T20:56:35.036Z,98941.75
2023-03-31T20:59:02.479Z,98937.38
2023-03-31T21:01:33.571Z,98938.81
2023-03-31T21:04:02.822Z,98930.72
2023-03-31T21:06:37.865Z,98926.16
2023-03-31T21:09:05.620Z,98923.66
2023-03-31T21:11:33.277Z,98910.94
2023-03-31T21:14:01.616Z,98906.25
2023-03-31T21:16:29.889Z,98907.28
2023-03-31T21:18:59.687Z,98917.75
2023-03-31T21:21:27.792Z,98926.66
2023-03-31T21:23:55.587Z,98936.75
2023-03-31T21:26:24.876Z,98955.28
2023-03-31T21:28:56.298Z,98971.34
2023-03-31T21:31:26.061Z,98982.56
2023-03-31T21:33:56.651Z,98990.59
2023-03-31T21:36:25.124Z,98983.78
2023-03-31T21:38:57.374Z,98987.16
2023-03-31T21:41:31.084Z,98985.22
2023-03-31T21:44:02.330Z,98982.81
2023-03-31T21:46:32.666Z,98975.41
2023-03-31T21:49:00.279Z,98965.50
2023-03-31T21:51:28.485Z,98966.28
2023-03-31T21:53:56.002Z,98970.56
2023-03-31T21:56:25.358Z,98974.94
2023-03-31T21:58:52.639Z,98973.16
2023-03-31T22:01:21.520Z,98976.19
2023-03-31T22:03:50.258Z,98991.84
2023-03-31T22:06:17.658Z,98986.00
2023-03-31T22:08:45.506Z,98987.66
2023-03-31T22:11:13.679Z,98972.91
2023-03-31T22:13:41.288Z,98980.03
2023-03-31T22:16:24.088Z,98967.31
2023-03-31T22:18:52.641Z,98965.03
2023-03-31T22:21:25.941Z,98963.25
2023-03-31T22:23:58.054Z,98963.13
2023-03-31T22:26:29.210Z,98964.66
2023-03-31T22:28:57.263Z,98957.91
2023-03-31T22:31:26.247Z,98953.00
2023-03-31T22:33:53.560Z,98951.22
2023-03-31T22:36:21.347Z,98954.66
2023-03-31T22:38:48.677Z,98948.09
2023-03-31T22:41:16.186Z,98959.81
2023-03-31T22:43:45.894Z,98960.28
2023-03-31T22:46:14.068Z,98950.00
2023-03-31T22:48:41.358Z,98948.69
2023-03-31T22:51:11.750Z,98953.66
2023-03-31T22:53:38.876Z,98942.97
2023-03-31T22:56:11.854Z,98942.00
2023-03-31T22:58:39.388Z,98949.56
2023-03-31T23:01:09.686Z,98938.31
2023-03-31T23:03:37.319Z,98941.63
2023-03-31T23:06:06.100Z,98938.88
2023-03-31T23:08:35.942Z,98930.22
2023-03-31T23:11:06.475Z,98927.69
2023-03-31T23:13:34.487Z,98925.00
2023-03-31T23:16:17.675Z,98924.72
2023-03-31T23:18:47.393Z,98922.06
2023-03-31T23:21:22.462Z,98916.84
2023-03-31T23:23:57.121Z,98917.31
2023-03-31T23:26:26.238Z,98911.97
2023-03-31T23:28:54.063Z,98907.47
2023-03-31T23:31:33.384Z,98907.91
2023-03-31T23:34:01.414Z,98919.00
2023-03-31T23:36:28.753Z,98916.28
2023-03-31T23:38:57.187Z,98914.84
2023-03-31T23:41:26.192Z,98918.66
2023-03-31T23:43:54.531Z,98915.81
2023-03-31T23:46:21.874Z,98919.22
2023-03-31T23:48:49.155Z,98918.81
2023-03-31T23:51:16.332Z,98920.22
2023-03-31T23:53:43.601Z,98923.56
2023-03-31T23:56:13.130Z,98923.03
2023-03-31T23:58:42.840Z,98922.13
